Time;durP1;ratioP1;P1;durP2;ratioP2;P2;SDS_P1;SDS_P2;PMS_P1;PMS_P2;Temp;Humidity;BMP_temperature;BMP_pressure;BME280_temperature;BME280_humidity;BME280_pressure;Samples;Min_cycle;Max_cycle;Signal;HPM_P1;HPM_P2
2023/01/13 00:01:46;;;;;;;1.85;1.75;;;9.10;99.90;;;;;;5067062;28;20222;-84
2023/01/13 00:04:13;;;;;;;3.08;1.90;;;9.20;99.90;;;;;;5044545;28;20495;-86
2023/01/13 00:06:41;;;;;;;2.95;1.40;;;9.20;99.90;;;;;;5054339;28;20207;-86
2023/01/13 00:09:08;;;;;;;2.22;1.70;;;9.20;99.90;;;;;;5050404;28;20263;-86
2023/01/13 00:11:35;;;;;;;4.50;2.00;;;9.30;99.90;;;;;;5050014;28;20211;-86
2023/01/13 00:14:04;;;;;;;2.58;1.77;;;9.30;99.90;;;;;;5044672;28;20195;-85
2023/01/13 00:16:31;;;;;;;4.00;2.17;;;9.30;99.90;;;;;;5044084;28;20590;-83
2023/01/13 00:18:58;;;;;;;2.78;2.08;;;9.30;99.90;;;;;;5055050;28;20206;-85
2023/01/13 00:21:26;;;;;;;1.73;1.63;;;9.30;99.90;;;;;;5056989;28;20209;-88
2023/01/13 00:23:55;;;;;;;1.55;1.30;;;9.50;99.90;;;;;;5062707;28;20195;-84
2023/01/13 00:26:32;;;;;;;2.33;1.67;;;9.50;99.90;;;;;;5074164;28;20207;-87
2023/01/13 00:29:00;;;;;;;1.77;1.67;;;9.40;99.90;;;;;;5054879;28;20191;-86
2023/01/13 00:31:28;;;;;;;2.20;1.80;;;9.30;99.90;;;;;;5052411;28;20218;-86
2023/01/13 00:34:01;;;;;;;1.42;1.33;;;9.30;99.90;;;;;;5077915;28;20272;-87
2023/01/13 00:36:32;;;;;;;2.72;1.65;;;9.30;99.90;;;;;;5075231;28;20387;-84
2023/01/13 00:39:03;;;;;;;1.35;1.25;;;9.40;99.90;;;;;;5050791;28;20203;-85
2023/01/13 00:43:21;;;;;;;2.00;1.83;;;9.40;99.90;;;;;;5045546;28;20207;-86
2023/01/13 00:44:18;;;;;;;1.83;1.40;;;9.40;99.90;;;;;;5043200;28;20214;-85
2023/01/13 00:46:46;;;;;;;2.42;1.75;;;9.50;99.90;;;;;;5046961;28;20441;-85
2023/01/13 00:49:14;;;;;;;2.40;1.60;;;9.40;99.90;;;;;;5043488;28;20215;-84
2023/01/13 00:51:41;;;;;;;1.52;1.42;;;9.30;99.90;;;;;;5041853;28;20216;-87
2023/01/13 00:54:09;;;;;;;2.05;1.60;;;9.20;99.90;;;;;;5048812;28;20210;-86
2023/01/13 00:56:36;;;;;;;1.65;1.42;;;9.30;99.90;;;;;;5067668;28;20215;-85
2023/01/13 00:59:10;;;;;;;2.30;1.85;;;9.30;99.90;;;;;;5052280;28;20290;-84
2023/01/13 01:01:38;;;;;;;3.03;1.63;;;9.30;99.90;;;;;;5052098;28;20214;-84
2023/01/13 01:04:06;;;;;;;2.17;1.75;;;9.50;99.90;;;;;;5052609;28;20198;-84
2023/01/13 01:06:33;;;;;;;1.60;1.20;;;9.20;99.90;;;;;;5057663;28;20423;-85
2023/01/13 01:09:00;;;;;;;2.38;1.67;;;9.20;99.90;;;;;;5045404;28;20253;-84
2023/01/13 01:11:30;;;;;;;2.30;1.80;;;9.30;99.90;;;;;;5045430;28;20538;-85
2023/01/13 01:14:00;;;;;;;3.92;1.95;;;9.20;99.90;;;;;;5052060;28;20427;-84
2023/01/13 01:16:29;;;;;;;1.60;1.50;;;9.20;99.90;;;;;;5044570;28;20250;-86
2023/01/13 01:19:00;;;;;;;1.92;1.67;;;9.20;99.90;;;;;;5040516;28;20196;-86
2023/01/13 01:21:28;;;;;;;2.25;1.55;;;9.20;99.90;;;;;;5053189;28;20195;-85
2023/01/13 01:24:00;;;;;;;1.85;1.67;;;9.30;99.90;;;;;;5068988;28;20211;-84
2023/01/13 01:26:28;;;;;;;3.53;2.33;;;9.20;99.90;;;;;;5052972;28;20269;-85
2023/01/13 01:28:56;;;;;;;2.78;1.67;;;9.20;99.90;;;;;;5063623;28;20207;-86
2023/01/13 01:31:32;;;;;;;1.88;1.67;;;9.20;99.90;;;;;;5042609;28;20207;-87
2023/01/13 01:34:01;;;;;;;1.85;1.75;;;9.40;99.90;;;;;;5050098;28;20207;-85
2023/01/13 01:36:33;;;;;;;2.33;2.08;;;9.40;99.90;;;;;;5038377;28;20274;-86
2023/01/13 01:39:00;;;;;;;1.60;1.50;;;9.30;99.90;;;;;;5043050;28;20210;-88
2023/01/13 01:41:33;;;;;;;1.52;1.40;;;9.50;99.90;;;;;;5068676;28;20241;-89
2023/01/13 01:44:09;;;;;;;1.50;1.40;;;9.30;99.90;;;;;;5069752;28;20198;-86
2023/01/13 01:46:43;;;;;;;1.75;1.65;;;9.20;99.90;;;;;;5053955;28;20223;-86
2023/01/13 01:49:19;;;;;;;2.50;2.30;;;9.20;99.90;;;;;;5057616;28;20207;-86
2023/01/13 01:51:56;;;;;;;1.95;1.75;;;9.20;99.90;;;;;;5052402;28;20665;-85
2023/01/13 01:54:38;;;;;;;1.50;1.40;;;9.20;99.90;;;;;;5048655;28;20586;-87
2023/01/13 01:57:08;;;;;;;2.20;1.90;;;9.30;99.90;;;;;;5049075;28;20227;-84
2023/01/13 01:59:38;;;;;;;2.63;1.75;;;9.30;99.90;;;;;;5055456;28;20215;-84
2023/01/13 02:02:06;;;;;;;2.00;1.67;;;9.30;99.90;;;;;;5051115;28;20419;-84
2023/01/13 02:04:39;;;;;;;2.30;1.55;;;9.20;99.90;;;;;;5050723;28;20233;-89
2023/01/13 02:07:39;;;;;;;1.77;1.67;;;9.20;99.90;;;;;;5134828;27;20745;-85
2023/01/13 02:10:11;;;;;;;3.05;1.88;;;9.20;99.90;;;;;;5119715;28;20208;-87
2023/01/13 02:12:41;;;;;;;2.95;1.80;;;9.20;99.90;;;;;;5101477;28;20200;-85
2023/01/13 02:15:38;;;;;;;3.15;1.63;;;9.20;99.90;;;;;;5119513;28;20204;-84
2023/01/13 02:18:24;;;;;;;3.45;1.90;;;9.30;99.90;;;;;;5116822;28;20420;-85
2023/01/13 02:21:28;;;;;;;1.92;1.60;;;9.30;99.90;;;;;;5124620;28;20208;-90
2023/01/13 02:24:58;;;;;;;1.88;1.50;;;9.30;99.90;;;;;;5122319;28;20200;-84
2023/01/13 02:27:59;;;;;;;1.88;1.58;;;9.40;99.90;;;;;;5096581;28;20197;-86
2023/01/13 02:33:37;;;;;;;2.95;1.77;;;9.40;99.90;;;;;;5138330;27;20189;-84
2023/01/13 02:36:22;;;;;;;1.50;1.40;;;9.40;99.90;;;;;;5138057;27;20215;-84
2023/01/13 02:39:23;;;;;;;2.00;1.80;;;9.40;99.90;;;;;;5122010;28;20230;-87
2023/01/13 02:45:09;;;;;;;1.88;1.40;;;9.40;99.90;;;;;;5104823;28;20184;-87
2023/01/13 02:47:40;;;;;;;1.40;1.30;;;9.50;99.90;;;;;;5119179;28;20226;-87
2023/01/13 02:50:16;;;;;;;3.22;2.30;;;9.50;99.90;;;;;;5121234;28;20481;-88
2023/01/13 02:52:51;;;;;;;1.67;1.58;;;9.50;99.90;;;;;;5092606;28;20384;-87
2023/01/13 02:55:25;;;;;;;2.20;1.40;;;9.50;99.90;;;;;;5119479;28;20245;-85
2023/01/13 02:57:54;;;;;;;2.05;1.05;;;9.40;99.90;;;;;;5113407;28;20231;-86
2023/01/13 03:00:22;;;;;;;0.95;0.95;;;9.30;99.90;;;;;;5119208;28;20205;-86
2023/01/13 03:02:51;;;;;;;3.65;3.45;;;9.40;99.90;;;;;;5116048;28;20237;-86
2023/01/13 03:05:19;;;;;;;4.32;1.50;;;9.40;99.90;;;;;;5118693;28;20211;-85
2023/01/13 03:08:07;;;;;;;2.90;1.60;;;9.40;99.90;;;;;;5111015;28;20212;-87
2023/01/13 03:10:52;;;;;;;2.40;1.27;;;9.60;99.90;;;;;;5113013;28;20670;-85
2023/01/13 03:13:52;;;;;;;1.58;1.30;;;9.60;99.90;;;;;;5113322;28;20264;-86
2023/01/13 03:16:27;;;;;;;1.88;1.77;;;9.50;99.90;;;;;;5103233;28;20277;-85
2023/01/13 03:19:19;;;;;;;2.92;1.55;;;9.40;99.90;;;;;;5094760;28;20786;-84
2023/01/13 03:21:54;;;;;;;2.15;1.00;;;9.30;99.90;;;;;;5098099;28;20268;-84
2023/01/13 03:24:33;;;;;;;1.63;1.38;;;9.30;99.90;;;;;;5103132;28;20213;-83
2023/01/13 03:27:20;;;;;;;1.90;1.45;;;9.30;99.90;;;;;;5098354;28;20455;-84
2023/01/13 03:30:09;;;;;;;1.52;1.35;;;9.10;99.90;;;;;;5102274;28;20367;-84
2023/01/13 03:32:47;;;;;;;3.75;1.70;;;9.10;99.90;;;;;;5112882;28;20213;-85
2023/01/13 03:35:24;;;;;;;2.80;1.50;;;9.00;99.90;;;;;;5104272;28;20437;-85
2023/01/13 03:38:22;;;;;;;2.15;1.95;;;9.10;99.90;;;;;;5101637;28;20205;-85
2023/01/13 03:41:00;;;;;;;3.55;1.10;;;9.10;99.90;;;;;;5094431;28;20202;-84
2023/01/13 03:46:51;;;;;;;1.80;1.70;;;9.10;99.90;;;;;;5097056;28;20306;-85
2023/01/13 03:49:23;;;;;;;5.75;1.42;;;9.20;99.90;;;;;;5101561;28;20226;-84
2023/01/13 03:51:55;;;;;;;2.15;1.45;;;9.10;99.90;;;;;;5083914;28;20231;-85
2023/01/13 03:54:27;;;;;;;2.40;1.67;;;9.10;99.90;;;;;;5088519;28;20210;-86
2023/01/13 03:57:03;;;;;;;1.60;1.25;;;9.30;99.90;;;;;;5094569;28;20205;-86
2023/01/13 03:59:40;;;;;;;3.30;1.80;;;9.20;99.90;;;;;;5101402;28;20208;-86
2023/01/13 04:02:16;;;;;;;2.28;1.80;;;9.20;99.90;;;;;;5096856;28;20529;-83
2023/01/13 04:04:50;;;;;;;1.83;1.73;;;9.20;99.90;;;;;;5104895;28;20233;-83
2023/01/13 04:07:50;;;;;;;4.13;1.92;;;9.30;99.90;;;;;;5100306;28;20600;-84
2023/01/13 04:10:33;;;;;;;2.35;1.98;;;9.30;99.90;;;;;;5105531;28;20394;-86
2023/01/13 04:13:06;;;;;;;5.30;2.10;;;9.30;99.90;;;;;;5096576;28;20440;-83
2023/01/13 04:15:44;;;;;;;1.90;1.10;;;9.10;99.90;;;;;;5102705;28;20221;-85
2023/01/13 04:18:17;;;;;;;2.15;1.73;;;9.20;99.90;;;;;;5089865;28;20557;-85
2023/01/13 04:20:48;;;;;;;1.15;1.05;;;9.20;99.90;;;;;;5112150;28;20209;-84
2023/01/13 04:23:16;;;;;;;1.55;1.40;;;9.10;99.90;;;;;;5090590;28;20202;-84
2023/01/13 04:25:45;;;;;;;1.60;1.15;;;9.10;99.90;;;;;;5110619;28;20241;-87
2023/01/13 04:28:15;;;;;;;2.20;1.52;;;9.10;99.90;;;;;;5105903;28;20212;-85
2023/01/13 04:30:42;;;;;;;2.85;1.45;;;9.30;99.90;;;;;;5093346;28;20221;-85
2023/01/13 04:33:13;;;;;;;4.40;2.05;;;9.20;99.90;;;;;;5098730;28;20208;-86
2023/01/13 04:35:42;;;;;;;2.00;1.83;;;9.10;99.90;;;;;;5099196;28;20232;-86
2023/01/13 04:38:16;;;;;;;1.27;1.17;;;9.20;99.90;;;;;;5102145;28;20189;-86
2023/01/13 04:40:46;;;;;;;3.08;1.60;;;9.20;99.90;;;;;;5095051;28;20270;-87
2023/01/13 04:43:14;;;;;;;2.38;1.30;;;9.20;99.90;;;;;;5103362;28;20208;-86
2023/01/13 04:45:44;;;;;;;2.08;1.85;;;9.20;99.90;;;;;;5114027;28;20204;-88
2023/01/13 04:48:12;;;;;;;2.60;1.40;;;9.30;99.90;;;;;;5104997;28;20232;-86
2023/01/13 04:50:39;;;;;;;1.15;1.02;;;9.40;99.90;;;;;;5099708;28;20189;-83
2023/01/13 04:53:06;;;;;;;2.80;1.60;;;9.30;99.90;;;;;;5084530;28;20222;-85
2023/01/13 04:55:35;;;;;;;3.67;1.88;;;9.30;99.90;;;;;;5104137;28;20263;-86
2023/01/13 04:58:06;;;;;;;2.30;1.20;;;9.30;99.90;;;;;;5107233;28;20232;-87
2023/01/13 05:00:34;;;;;;;2.35;2.15;;;9.40;99.90;;;;;;5095223;28;20220;-84
2023/01/13 05:03:16;;;;;;;3.00;1.48;;;9.30;99.90;;;;;;5099182;28;20196;-84
2023/01/13 05:05:51;;;;;;;2.60;1.60;;;9.30;99.90;;;;;;5096728;28;20719;-84
2023/01/13 05:08:18;;;;;;;1.67;1.33;;;9.30;99.90;;;;;;5109341;28;20212;-83
2023/01/13 05:10:46;;;;;;;3.60;1.40;;;9.30;99.90;;;;;;5108427;28;20207;-84
2023/01/13 05:18:46;;;;;;;2.00;1.70;;;9.40;99.90;;;;;;5101955;28;20220;-87
2023/01/13 05:27:04;;;;;;;3.60;2.25;;;9.40;99.90;;;;;;5113425;28;20219;-84
2023/01/13 05:29:43;;;;;;;1.95;1.77;;;9.30;99.90;;;;;;5100861;28;20213;-86
2023/01/13 05:32:15;;;;;;;1.48;1.38;;;9.40;99.90;;;;;;5108791;28;20216;-88
2023/01/13 05:34:45;;;;;;;2.85;1.50;;;9.50;99.90;;;;;;5117757;28;20222;-84
2023/01/13 05:37:24;;;;;;;1.30;1.20;;;9.50;99.90;;;;;;5111588;28;20263;-85
2023/01/13 05:43:20;;;;;;;1.63;1.15;;;9.40;99.90;;;;;;5107566;28;20211;-86
2023/01/13 05:46:11;;;;;;;1.60;1.33;;;9.40;99.90;;;;;;5082206;28;20308;-87
2023/01/13 05:48:41;;;;;;;1.45;1.13;;;9.40;99.90;;;;;;5112915;28;20212;-86
2023/01/13 05:51:11;;;;;;;2.60;2.30;;;9.30;99.90;;;;;;5098619;28;20194;-86
2023/01/13 05:53:58;;;;;;;1.83;1.30;;;9.40;99.90;;;;;;5113450;28;20205;-86
2023/01/13 05:56:53;;;;;;;2.47;1.88;;;9.50;99.90;;;;;;5103513;28;20209;-86
2023/01/13 05:59:25;;;;;;;2.13;1.80;;;9.40;99.90;;;;;;5083761;28;20512;-85
2023/01/13 06:01:53;;;;;;;0.90;0.80;;;9.50;99.90;;;;;;5105400;28;20212;-85
2023/01/13 06:04:20;;;;;;;2.75;1.50;;;9.60;99.90;;;;;;5096603;28;20204;-84
2023/01/13 06:06:48;;;;;;;3.10;1.50;;;9.50;99.90;;;;;;5112522;28;20225;-85
2023/01/13 06:09:15;;;;;;;3.92;1.45;;;9.60;99.90;;;;;;5107293;28;20330;-84
2023/01/13 06:11:42;;;;;;;4.43;0.90;;;9.50;99.90;;;;;;5082274;28;20209;-85
2023/01/13 06:14:10;;;;;;;2.10;1.33;;;9.50;99.90;;;;;;5090489;28;20209;-87
2023/01/13 06:16:37;;;;;;;2.53;1.27;;;9.40;99.90;;;;;;5092333;28;20224;-84
2023/01/13 06:19:11;;;;;;;1.35;1.20;;;9.40;99.90;;;;;;5089414;28;20206;-84
2023/01/13 06:21:42;;;;;;;1.50;1.20;;;9.30;99.90;;;;;;5100407;28;20217;-86
2023/01/13 06:24:11;;;;;;;3.33;2.17;;;9.40;99.90;;;;;;5097622;28;20216;-86
2023/01/13 06:26:44;;;;;;;1.98;1.30;;;9.30;99.90;;;;;;5100875;28;20461;-85
2023/01/13 06:29:13;;;;;;;1.88;1.30;;;9.30;99.90;;;;;;5093244;28;20212;-86
2023/01/13 06:31:43;;;;;;;1.30;1.08;;;9.40;99.90;;;;;;5107889;28;20202;-84
2023/01/13 06:34:13;;;;;;;3.75;2.25;;;9.50;99.90;;;;;;5112189;28;20211;-86
2023/01/13 06:36:46;;;;;;;2.03;1.45;;;9.50;99.90;;;;;;5112371;28;20235;-88
2023/01/13 06:39:20;;;;;;;2.88;1.90;;;9.50;99.90;;;;;;5110790;28;20255;-88
2023/01/13 06:44:38;;;;;;;4.45;2.38;;;9.50;99.90;;;;;;5112852;28;20223;-88
2023/01/13 06:47:07;;;;;;;1.50;1.40;;;9.50;99.90;;;;;;5108727;28;20239;-86
2023/01/13 06:49:49;;;;;;;1.42;1.33;;;9.50;99.90;;;;;;5097570;28;20205;-89
2023/01/13 06:52:17;;;;;;;1.85;1.67;;;9.70;99.90;;;;;;5118759;28;20280;-88
2023/01/13 06:54:46;;;;;;;1.83;1.63;;;9.60;99.90;;;;;;5114843;28;20205;-83
2023/01/13 06:57:14;;;;;;;3.42;0.95;;;9.50;99.90;;;;;;5112439;28;20223;-83
2023/01/13 06:59:42;;;;;;;1.52;1.10;;;9.50;99.90;;;;;;5108259;28;20205;-85
2023/01/13 07:02:12;;;;;;;2.45;1.30;;;9.60;99.90;;;;;;5105828;28;20209;-89
2023/01/13 07:04:40;;;;;;;2.88;1.73;;;9.60;99.90;;;;;;5087944;28;20836;-85
2023/01/13 07:07:08;;;;;;;6.07;1.58;;;9.60;99.90;;;;;;5068420;28;20501;-84
2023/01/13 07:09:37;;;;;;;3.13;1.98;;;9.70;99.90;;;;;;5110837;28;20221;-89
2023/01/13 07:12:04;;;;;;;1.45;1.35;;;9.70;99.90;;;;;;5089490;28;20203;-86
2023/01/13 07:17:24;;;;;;;1.65;1.15;;;9.70;99.90;;;;;;5101890;28;20702;-86
2023/01/13 07:19:56;;;;;;;2.40;1.45;;;9.80;99.90;;;;;;5110024;28;20208;-85
2023/01/13 07:22:23;;;;;;;1.38;1.27;;;9.80;99.90;;;;;;5093557;28;20205;-85
2023/01/13 07:24:52;;;;;;;1.83;1.20;;;9.80;99.90;;;;;;5090113;28;20201;-85
2023/01/13 07:27:19;;;;;;;1.30;1.20;;;9.80;99.90;;;;;;5104603;28;20252;-87
2023/01/13 07:29:49;;;;;;;1.40;1.30;;;9.70;99.90;;;;;;5105041;28;20258;-85
2023/01/13 07:32:17;;;;;;;1.60;1.27;;;9.90;99.90;;;;;;5115188;28;20513;-88
2023/01/13 07:34:44;;;;;;;1.08;0.80;;;9.80;99.90;;;;;;5087709;28;20201;-84
2023/01/13 07:37:14;;;;;;;1.80;1.70;;;9.70;99.90;;;;;;5099846;28;20213;-88
2023/01/13 07:39:44;;;;;;;2.30;1.15;;;9.80;99.90;;;;;;5113255;28;20270;-87
2023/01/13 07:45:03;;;;;;;10.32;1.80;;;9.80;99.90;;;;;;5104552;28;20277;-88
2023/01/13 07:47:35;;;;;;;3.47;2.47;;;9.80;99.90;;;;;;5091045;28;20226;-87
2023/01/13 07:50:02;;;;;;;4.70;1.48;;;9.80;99.90;;;;;;5097091;28;20213;-85
2023/01/13 07:52:30;;;;;;;3.25;1.10;;;9.80;99.90;;;;;;5097453;28;20239;-87
2023/01/13 07:54:56;;;;;;;1.95;1.17;;;9.90;99.90;;;;;;5106349;28;20208;-85
2023/01/13 07:57:24;;;;;;;1.65;1.17;;;9.90;99.90;;;;;;5097051;28;20259;-86
2023/01/13 07:59:52;;;;;;;2.63;2.20;;;10.00;99.90;;;;;;5106674;28;20200;-87
2023/01/13 08:02:20;;;;;;;3.83;1.77;;;10.10;99.90;;;;;;5104514;28;20213;-87
2023/01/13 08:04:47;;;;;;;5.18;1.80;;;10.00;99.90;;;;;;5106273;28;20206;-87
2023/01/13 08:07:15;;;;;;;2.53;1.65;;;10.00;99.90;;;;;;5108128;28;20248;-86
2023/01/13 08:09:41;;;;;;;1.52;1.30;;;10.00;99.90;;;;;;5104317;28;20220;-86
2023/01/13 08:14:54;;;;;;;2.50;1.70;;;10.00;99.90;;;;;;5104462;28;20205;-87
2023/01/13 08:17:21;;;;;;;1.70;1.20;;;10.00;99.90;;;;;;5097260;28;20210;-86
2023/01/13 08:19:48;;;;;;;4.20;1.30;;;10.10;99.90;;;;;;5101156;28;20205;-90
2023/01/13 08:22:15;;;;;;;1.60;1.25;;;10.20;99.90;;;;;;5105038;28;20213;-87
2023/01/13 08:24:43;;;;;;;4.07;1.30;;;10.30;99.90;;;;;;5106063;28;20245;-84
2023/01/13 08:27:10;;;;;;;4.10;2.10;;;10.30;99.90;;;;;;5101503;28;20237;-88
2023/01/13 08:29:37;;;;;;;2.90;1.23;;;10.40;99.90;;;;;;5096649;28;20209;-86
2023/01/13 08:32:05;;;;;;;2.00;1.50;;;10.40;99.90;;;;;;5097543;28;20209;-84
2023/01/13 08:34:32;;;;;;;1.30;1.20;;;10.40;99.90;;;;;;5099573;28;20194;-88
2023/01/13 08:36:59;;;;;;;1.92;1.30;;;10.50;99.90;;;;;;5097561;28;20208;-85
2023/01/13 08:39:26;;;;;;;1.70;1.35;;;10.50;99.90;;;;;;5086990;28;20256;-86
2023/01/13 08:41:55;;;;;;;1.70;1.50;;;10.50;99.90;;;;;;5092522;28;20286;-86
2023/01/13 08:44:25;;;;;;;3.75;1.90;;;10.40;99.90;;;;;;5096942;28;20217;-86
2023/01/13 08:46:52;;;;;;;2.65;1.70;;;10.40;99.90;;;;;;5106034;28;20235;-88
2023/01/13 08:49:20;;;;;;;4.13;1.00;;;10.30;99.90;;;;;;5103514;28;20190;-85
2023/01/13 08:51:48;;;;;;;1.52;1.40;;;10.60;99.90;;;;;;5104945;28;20209;-86
2023/01/13 08:54:16;;;;;;;11.50;2.63;;;10.50;99.90;;;;;;5100908;28;20213;-85
2023/01/13 08:56:44;;;;;;;2.67;1.90;;;10.30;99.90;;;;;;5098872;28;20449;-86
2023/01/13 08:59:16;;;;;;;2.22;1.40;;;10.40;99.90;;;;;;5112739;28;20193;-85
2023/01/13 09:01:44;;;;;;;3.78;1.58;;;10.40;99.90;;;;;;5110257;28;20193;-88
2023/01/13 09:04:18;;;;;;;1.75;1.58;;;10.50;99.90;;;;;;5108288;28;20221;-88
2023/01/13 09:06:46;;;;;;;1.10;0.95;;;10.40;99.90;;;;;;5108064;28;20217;-90
2023/01/13 09:09:13;;;;;;;2.50;1.25;;;10.50;99.90;;;;;;5096237;28;20213;-85
2023/01/13 09:14:34;;;;;;;2.08;1.50;;;10.50;99.90;;;;;;5092385;28;20378;-86
2023/01/13 09:17:01;;;;;;;1.35;1.20;;;10.40;99.90;;;;;;5103221;28;20210;-87
2023/01/13 09:19:29;;;;;;;4.63;1.35;;;10.30;99.90;;;;;;5101020;28;20213;-84
2023/01/13 09:21:56;;;;;;;1.63;1.52;;;10.40;99.90;;;;;;5098506;28;20215;-90
2023/01/13 09:24:24;;;;;;;1.35;1.25;;;10.30;99.90;;;;;;5101389;28;20208;-83
2023/01/13 09:26:52;;;;;;;3.53;2.25;;;10.40;99.90;;;;;;5088473;28;20206;-85
2023/01/13 09:29:21;;;;;;;1.50;1.33;;;10.40;99.90;;;;;;5104057;28;20225;-86
2023/01/13 09:31:50;;;;;;;1.85;1.73;;;10.50;99.90;;;;;;5103946;28;20202;-88
2023/01/13 09:37:06;;;;;;;2.35;1.30;;;10.50;99.90;;;;;;5112363;28;20200;-87
2023/01/13 09:39:35;;;;;;;2.40;1.60;;;10.60;99.90;;;;;;5102394;28;20202;-85
2023/01/13 09:45:19;;;;;;;10.57;2.05;;;10.80;99.90;;;;;;5089790;28;20222;-86
2023/01/13 09:47:58;;;;;;;2.88;1.95;;;10.70;99.90;;;;;;5095274;28;20217;-85
2023/01/13 09:50:33;;;;;;;2.97;2.22;;;10.70;99.90;;;;;;5092627;28;20494;-85
2023/01/13 09:53:00;;;;;;;2.13;2.03;;;10.60;99.90;;;;;;5094253;28;20244;-86
2023/01/13 09:55:36;;;;;;;1.42;1.33;;;10.70;99.90;;;;;;5099075;28;20194;-86
2023/01/13 09:58:13;;;;;;;1.70;1.60;;;10.70;99.90;;;;;;5102947;28;20212;-90
2023/01/13 10:01:10;;;;;;;3.00;1.83;;;10.80;99.90;;;;;;5105135;28;20209;-87
2023/01/13 10:03:41;;;;;;;3.15;1.73;;;10.80;99.90;;;;;;5085023;28;20212;-88
2023/01/13 10:06:37;;;;;;;2.00;1.85;;;10.90;99.90;;;;;;5106645;28;20271;-88
2023/01/13 10:09:05;;;;;;;1.40;1.30;;;10.90;99.90;;;;;;5091154;28;20229;-87
2023/01/13 10:14:51;;;;;;;5.60;1.95;;;11.00;99.90;;;;;;5095428;28;20198;-87
2023/01/13 10:17:35;;;;;;;3.38;2.50;;;11.10;99.90;;;;;;5092166;28;20255;-88
2023/01/13 10:20:25;;;;;;;3.05;1.80;;;11.20;99.90;;;;;;5095122;28;20205;-82
2023/01/13 10:23:07;;;;;;;4.22;2.08;;;11.30;99.90;;;;;;5093689;28;20220;-87
2023/01/13 10:26:11;;;;;;;2.05;1.70;;;11.50;99.90;;;;;;5094397;28;20229;-87
2023/01/13 10:28:37;;;;;;;1.60;1.40;;;11.70;99.90;;;;;;5092479;28;20453;-87
2023/01/13 10:31:13;;;;;;;1.65;1.55;;;11.90;99.90;;;;;;5102629;28;20508;-87
2023/01/13 10:33:40;;;;;;;1.73;1.20;;;12.20;99.90;;;;;;5106663;28;20235;-83
2023/01/13 10:36:21;;;;;;;2.67;1.70;;;12.20;99.90;;;;;;5103768;28;20209;-86
2023/01/13 10:38:50;;;;;;;8.27;1.98;;;12.30;99.90;;;;;;5099177;28;20202;-83
2023/01/13 10:41:24;;;;;;;2.88;1.67;;;12.40;99.90;;;;;;5106906;28;20241;-86
2023/01/13 10:43:51;;;;;;;2.00;1.70;;;12.30;99.90;;;;;;5242274;22;20230;-87
2023/01/13 10:46:19;;;;;;;2.35;1.65;;;12.20;99.90;;;;;;5083195;28;20199;-88
2023/01/13 10:49:16;;;;;;;2.05;1.95;;;12.30;99.90;;;;;;5089251;28;20438;-87
2023/01/13 10:51:48;;;;;;;2.40;1.80;;;12.30;99.90;;;;;;5077111;28;20215;-87
2023/01/13 10:54:24;;;;;;;1.77;1.10;;;12.50;99.90;;;;;;5092054;28;20199;-87
2023/01/13 10:57:20;;;;;;;2.45;1.88;;;12.80;99.90;;;;;;5080971;28;20199;-85
2023/01/13 10:59:49;;;;;;;2.40;1.70;;;12.90;99.90;;;;;;5086832;28;20218;-86
2023/01/13 11:02:17;;;;;;;2.45;1.77;;;12.70;99.90;;;;;;5087594;28;20221;-88
2023/01/13 11:04:52;;;;;;;3.63;1.85;;;12.60;99.90;;;;;;5082182;28;20202;-85
2023/01/13 11:07:32;;;;;;;1.63;1.50;;;12.50;99.90;;;;;;5089999;28;20225;-87
2023/01/13 11:10:18;;;;;;;4.80;1.75;;;12.50;99.90;;;;;;5077382;28;20253;-87
2023/01/13 11:13:13;;;;;;;2.15;1.30;;;12.60;99.90;;;;;;5084687;28;20201;-86
2023/01/13 11:16:13;;;;;;;2.75;2.00;;;12.70;99.90;;;;;;5073898;28;20214;-88
2023/01/13 11:19:00;;;;;;;3.40;2.22;;;12.50;99.90;;;;;;5084739;28;20199;-86
2023/01/13 11:22:18;;;;;;;17.55;8.15;;;12.40;99.90;;;;;;5075086;28;20192;-88
2023/01/13 11:24:51;;;;;;;4.47;1.63;;;12.20;99.90;;;;;;5074542;28;20256;-86
2023/01/13 11:27:51;;;;;;;4.40;1.80;;;12.20;99.90;;;;;;5077810;28;20193;-85
2023/01/13 11:30:38;;;;;;;10.65;1.85;;;12.10;99.90;;;;;;5086368;28;20218;-86
2023/01/13 11:33:14;;;;;;;5.70;1.60;;;12.10;99.90;;;;;;5084324;28;20230;-84
2023/01/13 11:36:03;;;;;;;8.10;1.52;;;12.20;99.90;;;;;;5071299;28;20246;-85
2023/01/13 11:38:46;;;;;;;7.03;2.53;;;12.10;99.90;;;;;;5075714;28;20279;-91
2023/01/13 11:41:25;;;;;;;1.92;1.35;;;12.00;99.90;;;;;;5078712;28;20209;-89
2023/01/13 11:44:09;;;;;;;1.85;1.05;;;12.10;99.90;;;;;;5083562;28;20226;-85
2023/01/13 11:46:37;;;;;;;3.55;1.65;;;12.10;99.90;;;;;;5072094;28;20213;-89
2023/01/13 11:51:51;;;;;;;1.63;1.30;;;12.00;99.90;;;;;;5119232;22;20233;-86
2023/01/13 11:54:36;;;;;;;2.60;1.88;;;12.10;99.90;;;;;;5107609;28;20186;-90
2023/01/13 11:57:13;;;;;;;3.08;1.70;;;12.10;99.90;;;;;;5103722;28;20206;-87
2023/01/13 11:59:58;;;;;;;4.13;1.67;;;12.20;99.90;;;;;;5107707;28;20221;-88
2023/01/13 12:02:46;;;;;;;1.23;1.13;;;12.20;99.90;;;;;;5105369;28;20241;-83
2023/01/13 12:05:18;;;;;;;2.88;1.63;;;12.20;99.90;;;;;;5105885;28;20206;-87
2023/01/13 12:08:00;;;;;;;2.88;1.70;;;12.20;99.90;;;;;;5103480;28;20289;-86
2023/01/13 12:11:03;;;;;;;1.77;1.50;;;12.30;99.90;;;;;;5106184;28;20217;-85
2023/01/13 12:14:40;;;;;;;4.03;1.50;;;12.50;99.90;;;;;;5189783;22;20564;-88
2023/01/13 12:17:26;;;;;;;2.33;1.85;;;12.50;99.90;;;;;;5068325;28;20222;-87
2023/01/13 12:19:54;;;;;;;2.15;1.27;;;12.40;99.90;;;;;;5055860;28;20188;-86
2023/01/13 12:22:31;;;;;;;2.42;1.38;;;12.20;99.90;;;;;;5086249;28;20213;-87
2023/01/13 12:25:21;;;;;;;2.10;1.27;;;12.20;99.90;;;;;;5093136;28;20207;-89
2023/01/13 12:27:59;;;;;;;5.57;2.10;;;12.30;99.90;;;;;;5098006;28;20290;-87
2023/01/13 12:30:49;;;;;;;3.90;3.53;;;12.40;99.90;;;;;;5106664;28;20210;-86
2023/01/13 12:33:43;;;;;;;1.35;1.25;;;12.40;99.90;;;;;;5106287;28;20198;-86
2023/01/13 12:36:36;;;;;;;2.65;1.60;;;12.30;99.90;;;;;;5095081;28;20221;-87
2023/01/13 12:39:28;;;;;;;3.33;1.45;;;12.50;99.90;;;;;;5136615;22;20265;-85
2023/01/13 12:45:04;;;;;;;3.00;1.73;;;12.70;99.90;;;;;;5083545;28;20198;-88
2023/01/13 12:47:34;;;;;;;1.70;1.60;;;12.80;99.90;;;;;;5082078;28;20203;-87
2023/01/13 12:50:26;;;;;;;3.42;2.20;;;12.70;99.90;;;;;;5075521;28;20267;-87
2023/01/13 12:53:16;;;;;;;2.78;2.10;;;12.70;99.90;;;;;;5073124;28;20210;-85
2023/01/13 12:55:52;;;;;;;2.55;1.50;;;12.60;99.90;;;;;;5084134;28;20257;-86
2023/01/13 12:58:28;;;;;;;3.88;1.95;;;12.30;99.90;;;;;;5059869;28;20200;-89
2023/01/13 13:01:05;;;;;;;4.10;1.92;;;12.20;99.90;;;;;;5076319;28;20270;-87
2023/01/13 13:03:37;;;;;;;2.35;1.88;;;12.30;99.90;;;;;;5071442;28;20229;-86
2023/01/13 13:06:40;;;;;;;1.60;1.50;;;12.30;99.90;;;;;;5083675;28;20195;-87
2023/01/13 13:09:44;;;;;;;2.58;1.77;;;12.50;99.90;;;;;;5030557;28;20226;-90
2023/01/13 13:15:34;;;;;;;2.47;1.80;;;12.50;99.90;;;;;;5082736;28;20294;-89
2023/01/13 13:18:26;;;;;;;3.97;1.90;;;12.40;99.90;;;;;;5071162;28;20183;-86
2023/01/13 13:21:08;;;;;;;2.75;2.00;;;12.30;99.90;;;;;;5074728;28;20191;-87
2023/01/13 13:23:59;;;;;;;3.33;2.03;;;12.30;99.90;;;;;;5081025;28;20191;-86
2023/01/13 13:26:34;;;;;;;2.80;2.08;;;12.10;99.90;;;;;;5062999;28;20195;-86
2023/01/13 13:29:20;;;;;;;6.60;2.42;;;12.00;99.90;;;;;;5074122;28;20258;-85
2023/01/13 13:32:32;;;;;;;4.40;1.90;;;12.00;99.90;;;;;;5073818;28;20244;-86
2023/01/13 13:35:32;;;;;;;7.10;2.30;;;12.00;99.90;;;;;;5075533;28;20210;-85
2023/01/13 13:47:39;;;;;;;5.50;2.45;;;12.00;99.90;;;;;;5078660;28;20647;-87
2023/01/13 13:50:14;;;;;;;2.40;2.10;;;11.90;99.90;;;;;;5070786;28;20222;-86
2023/01/13 13:52:53;;;;;;;4.82;1.98;;;11.70;99.90;;;;;;5211036;22;20233;-86
2023/01/13 13:55:23;;;;;;;3.42;2.20;;;11.70;99.90;;;;;;5087177;28;20206;-85
2023/01/13 13:57:56;;;;;;;3.88;2.97;;;11.80;99.90;;;;;;5100813;28;20479;-86
2023/01/13 14:00:25;;;;;;;2.17;1.95;;;11.70;99.90;;;;;;5079631;28;20210;-89
2023/01/13 14:02:57;;;;;;;3.20;2.25;;;11.70;99.90;;;;;;5099600;28;20449;-86
2023/01/13 14:05:32;;;;;;;3.90;2.42;;;11.60;99.90;;;;;;5107762;28;20194;-88
2023/01/13 14:08:21;;;;;;;5.32;2.50;;;11.80;99.90;;;;;;5104034;28;20182;-85
2023/01/13 14:10:55;;;;;;;3.05;2.20;;;11.90;99.90;;;;;;5095841;28;20218;-87
2023/01/13 14:16:18;;;;;;;4.07;2.80;;;11.80;99.90;;;;;;5093061;28;20263;-86
2023/01/13 14:19:23;;;;;;;3.95;3.10;;;11.70;99.90;;;;;;5088027;28;20210;-87
2023/01/13 14:22:13;;;;;;;6.80;3.17;;;11.70;99.90;;;;;;5076356;28;20522;-88
2023/01/13 14:24:57;;;;;;;7.10;2.45;;;11.80;99.90;;;;;;5087715;28;20212;-87
2023/01/13 14:27:41;;;;;;;4.22;2.65;;;11.90;99.90;;;;;;5084808;28;20215;-86
2023/01/13 14:30:18;;;;;;;3.42;2.72;;;11.90;99.90;;;;;;5088934;28;20249;-88
2023/01/13 14:32:48;;;;;;;5.80;3.38;;;12.20;99.90;;;;;;5085889;28;20236;-87
2023/01/13 14:35:16;;;;;;;6.03;5.35;;;12.10;99.90;;;;;;5064976;28;20278;-90
2023/01/13 14:38:03;;;;;;;2.88;1.90;;;11.90;99.90;;;;;;5100675;28;20183;-87
2023/01/13 14:40:35;;;;;;;3.55;2.20;;;11.30;99.90;;;;;;5085318;28;20203;-89
2023/01/13 14:43:17;;;;;;;1.67;1.58;;;10.80;99.90;;;;;;5108472;28;20201;-84
2023/01/13 14:45:58;;;;;;;3.38;2.05;;;10.40;99.90;;;;;;5096613;28;20301;-87